This is the latest recevied weather packets stored in our database for station/object KF7SOJ. If no packets are shown the sender has not sent any weather packets the latest 10 day(s).
| Time | Temp. | Humidity | Pressure | Rain* | Wind** | Luminosity | Snow |
|---|---|---|---|---|---|---|---|
| 1788442372 | 16.11° C | 48% | 927 hPa | 0 mm | - | 27 W/m² | - |
| 1788442066 | 16.67° C | 47% | 926.9 hPa | 0 mm | - | 18 W/m² | - |
| 1788441762 | 16.11° C | 45% | 926.8 hPa | 0 mm | - | 15 W/m² | - |
| 1788441457 | 15.56° C | 48% | 926.9 hPa | 0 mm | - | 12 W/m² | - |
| 1788441156 | 16.67° C | 47% | 926.7 hPa | 0 mm | - | 9 W/m² | - |
| 1788440851 | 17.22° C | 43% | 926.8 hPa | 0 mm | - | 7 W/m² | - |
| 1788440546 | 17.22° C | 41% | 926.5 hPa | 0 mm | - | 6 W/m² | - |
| 1788440244 | 16.67° C | 44% | 926.7 hPa | 0 mm | - | 5 W/m² | - |
| 1788439940 | 15.56° C | 49% | 926.7 hPa | 0 mm | - | 3 W/m² | - |
| 1788439639 | 15.56° C | 49% | 927 hPa | 0 mm | - | 2 W/m² | - |
| 1788439335 | 15.56° C | 50% | 926.6 hPa | 0 mm | - | 1 W/m² | - |
| 1788439033 | 16.11° C | 48% | 926.7 hPa | 0 mm | - | 1 W/m² | - |
| 1788438732 | 15.56° C | 50% | 926.5 hPa | 0 mm | - | 0 W/m² | - |
| 1788438432 | 15.56° C | 52% | 926.9 hPa | 0 mm | - | 0 W/m² | - |
| 1788438127 | 15.56° C | 52% | 926.8 hPa | 0 mm | - | 0 W/m² | - |
| 1788437825 | 15.56° C | 51% | 926.7 hPa | 0 mm | - | 0 W/m² | - |
| 1788437521 | 15.56° C | 49% | 926.8 hPa | 0 mm | - | 0 W/m² | - |
| 1788437221 | 15.56° C | 50% | 926.6 hPa | 0 mm | - | 0 W/m² | - |
| 1788436915 | 15.56° C | 53% | 926.5 hPa | 0 mm | - | 0 W/m² | - |
| 1788436613 | 15.56° C | 52% | 926.7 hPa | 0 mm | - | 0 W/m² | - |
| 1788436309 | 15.56° C | 50% | 926.6 hPa | 0 mm | - | 0 W/m² | - |
| 1788436009 | 15.56° C | 49% | 926.7 hPa | 0 mm | - | 0 W/m² | - |
| 1788435704 | 15.56° C | 49% | 926.9 hPa | 0 mm | - | 0 W/m² | - |
| 1788435400 | 15.56° C | 49% | 926.5 hPa | 0 mm | - | 0 W/m² | - |
| 1788435096 | 16.11° C | 49% | 926.6 hPa | 0 mm | - | 0 W/m² | - |
* Rain latest hour (hover to see other rain measurements)
** Current wind speed in m/s (hover to see current wind gust speed)